Time;durP1;ratioP1;P1;durP2;ratioP2;P2;SDS_P1;SDS_P2;PMS_P1;PMS_P2;Temp;Humidity;BMP_temperature;BMP_pressure;BME280_temperature;BME280_humidity;BME280_pressure;Samples;Min_cycle;Max_cycle;Signal;HPM_P1;HPM_P2
2024/03/31 00:01:12;;;;;;;7.80;2.28;;;18.80;99.90;;;;;;5053711;28;20051;-57
2024/03/31 00:03:40;;;;;;;5.47;2.40;;;18.80;99.90;;;;;;5035271;28;20028;-57
2024/03/31 00:06:06;;;;;;;5.25;2.10;;;18.90;99.90;;;;;;5053603;28;20103;-57
2024/03/31 00:08:32;;;;;;;6.47;2.22;;;18.80;99.90;;;;;;5053188;28;20047;-56
2024/03/31 00:11:03;;;;;;;4.13;1.98;;;18.80;99.90;;;;;;5053133;28;20052;-57
2024/03/31 00:13:29;;;;;;;6.30;3.10;;;18.80;99.90;;;;;;5053442;28;20024;-56
2024/03/31 00:15:55;;;;;;;7.32;2.20;;;18.90;99.90;;;;;;5053557;28;20094;-57
2024/03/31 00:18:21;;;;;;;4.30;2.00;;;18.80;99.90;;;;;;5052522;28;20033;-57
2024/03/31 00:20:53;;;;;;;7.72;2.33;;;18.90;99.90;;;;;;5053546;28;20478;-58
2024/03/31 00:23:19;;;;;;;8.65;2.42;;;18.90;99.90;;;;;;5053404;28;20036;-58
2024/03/31 00:25:45;;;;;;;5.40;1.98;;;18.90;99.90;;;;;;5052563;28;20036;-56
2024/03/31 00:28:10;;;;;;;5.80;2.85;;;18.90;99.90;;;;;;5053320;28;20403;-57
2024/03/31 00:30:36;;;;;;;6.32;2.63;;;18.90;99.90;;;;;;5052846;28;20056;-56
2024/03/31 00:33:02;;;;;;;4.80;1.95;;;18.90;99.90;;;;;;5053134;28;20036;-57
2024/03/31 00:35:28;;;;;;;5.22;1.98;;;18.90;99.90;;;;;;5052638;28;20017;-55
2024/03/31 00:37:53;;;;;;;3.80;1.95;;;18.90;99.90;;;;;;5035572;28;20477;-57
2024/03/31 00:40:19;;;;;;;5.53;2.53;;;18.90;99.90;;;;;;5052782;28;20021;-57
2024/03/31 00:42:45;;;;;;;4.00;2.10;;;18.90;99.90;;;;;;5053025;28;20024;-57
2024/03/31 00:45:11;;;;;;;2.78;2.03;;;18.90;99.90;;;;;;5052853;28;20029;-56
2024/03/31 00:47:37;;;;;;;8.73;2.33;;;18.90;99.90;;;;;;5052894;28;20469;-57
2024/03/31 00:50:03;;;;;;;4.93;1.80;;;18.90;99.90;;;;;;5052836;28;20055;-56
2024/03/31 00:52:28;;;;;;;8.23;2.28;;;18.90;99.90;;;;;;5052683;28;20033;-57
2024/03/31 00:54:54;;;;;;;5.65;2.10;;;18.90;99.90;;;;;;5052404;28;20504;-56
2024/03/31 00:57:20;;;;;;;4.47;2.10;;;18.90;99.90;;;;;;5052418;28;20021;-56
2024/03/31 00:59:46;;;;;;;5.35;2.08;;;18.90;99.90;;;;;;5052787;28;20025;-58
2024/03/31 01:02:11;;;;;;;5.30;1.88;;;18.90;99.90;;;;;;5034037;28;20065;-58
2024/03/31 01:04:37;;;;;;;6.75;2.60;;;18.90;99.90;;;;;;5052348;28;20040;-55
2024/03/31 01:07:03;;;;;;;8.98;1.73;;;18.90;99.90;;;;;;5052763;28;20043;-55
2024/03/31 01:09:29;;;;;;;6.15;2.50;;;18.90;99.90;;;;;;5034354;28;20469;-57
2024/03/31 01:11:55;;;;;;;6.18;2.10;;;18.90;99.90;;;;;;5053017;28;20029;-57
2024/03/31 01:14:21;;;;;;;4.95;2.40;;;19.00;99.90;;;;;;5052629;28;20051;-54
2024/03/31 01:16:48;;;;;;;7.40;2.88;;;19.00;99.90;;;;;;5052358;28;20055;-56
2024/03/31 01:19:13;;;;;;;7.25;2.17;;;19.00;99.90;;;;;;5052361;28;20021;-55
2024/03/31 01:21:40;;;;;;;4.68;2.10;;;19.00;99.90;;;;;;5052748;28;20033;-56
2024/03/31 01:24:06;;;;;;;5.30;2.05;;;19.00;99.90;;;;;;5034568;28;20017;-57
2024/03/31 01:26:32;;;;;;;7.13;2.17;;;19.00;99.90;;;;;;5052022;28;20112;-54
2024/03/31 01:28:58;;;;;;;9.93;2.40;;;19.00;99.90;;;;;;5052294;28;20477;-54
2024/03/31 01:31:24;;;;;;;3.65;1.58;;;19.00;99.90;;;;;;5055895;28;20095;-53
2024/03/31 01:33:50;;;;;;;5.47;2.05;;;19.00;99.90;;;;;;5021682;28;20108;-54
2024/03/31 01:36:16;;;;;;;6.18;2.03;;;19.00;99.90;;;;;;5056392;28;20017;-53
2024/03/31 01:38:42;;;;;;;4.32;1.70;;;19.00;99.90;;;;;;5056410;28;20043;-54
2024/03/31 01:41:08;;;;;;;4.78;1.90;;;19.00;99.90;;;;;;5056110;28;20412;-54
2024/03/31 01:43:33;;;;;;;3.42;1.85;;;19.00;99.90;;;;;;5056200;28;20064;-56
2024/03/31 01:45:59;;;;;;;8.85;2.40;;;19.00;99.90;;;;;;5038366;28;20090;-55
2024/03/31 01:48:25;;;;;;;7.28;2.53;;;19.10;99.90;;;;;;5056008;28;20020;-56
2024/03/31 01:50:51;;;;;;;5.10;1.88;;;19.10;99.90;;;;;;5056266;28;20017;-56
2024/03/31 01:53:17;;;;;;;4.78;2.25;;;19.00;99.90;;;;;;5056095;28;20419;-57
2024/03/31 01:55:42;;;;;;;4.85;2.28;;;19.00;99.90;;;;;;5055708;28;20021;-56
2024/03/31 01:58:08;;;;;;;6.55;1.73;;;19.10;99.90;;;;;;5038169;28;20025;-55
2024/03/31 02:00:34;;;;;;;6.00;1.70;;;19.00;99.90;;;;;;5055705;28;20024;-56
2024/03/31 02:03:01;;;;;;;5.78;2.20;;;19.00;99.90;;;;;;5055806;28;20041;-55
2024/03/31 02:05:28;;;;;;;4.25;1.73;;;19.00;99.90;;;;;;5025487;28;20037;-55
2024/03/31 02:07:54;;;;;;;4.63;2.05;;;19.00;99.90;;;;;;5037829;28;20025;-55
2024/03/31 02:10:20;;;;;;;6.05;2.50;;;19.10;99.90;;;;;;5055316;28;20067;-56
2024/03/31 02:12:46;;;;;;;4.90;1.73;;;19.00;99.90;;;;;;5037932;28;20028;-55
2024/03/31 02:15:11;;;;;;;4.63;1.88;;;19.10;99.90;;;;;;5055606;28;20519;-56
2024/03/31 02:17:37;;;;;;;6.55;2.03;;;19.10;99.90;;;;;;5055044;28;20070;-56
2024/03/31 02:20:06;;;;;;;7.95;2.00;;;19.10;99.90;;;;;;5055922;28;20101;-56
2024/03/31 02:22:32;;;;;;;4.00;1.75;;;19.10;99.90;;;;;;5055612;28;20369;-56
2024/03/31 02:24:58;;;;;;;6.53;1.98;;;19.10;99.90;;;;;;5055303;28;20037;-57
2024/03/31 02:27:23;;;;;;;4.45;1.77;;;19.10;99.90;;;;;;5055282;28;20550;-56
2024/03/31 02:29:49;;;;;;;4.90;1.83;;;19.10;99.90;;;;;;5055489;28;20445;-57
2024/03/31 02:32:15;;;;;;;5.70;2.10;;;19.10;99.90;;;;;;5037098;28;20028;-56
2024/03/31 02:34:41;;;;;;;3.50;1.98;;;19.10;99.90;;;;;;5055228;28;20056;-56
2024/03/31 02:37:06;;;;;;;7.32;2.55;;;19.10;99.90;;;;;;5037455;28;20036;-57
2024/03/31 02:39:32;;;;;;;5.78;2.20;;;19.10;99.90;;;;;;5055409;28;20032;-57
2024/03/31 02:41:58;;;;;;;6.68;2.05;;;19.10;99.90;;;;;;5054647;28;20190;-58
2024/03/31 02:44:24;;;;;;;3.95;1.73;;;19.10;99.90;;;;;;5055194;28;20027;-58
2024/03/31 02:46:50;;;;;;;4.57;2.05;;;19.10;99.90;;;;;;5054724;28;20116;-57
2024/03/31 02:49:16;;;;;;;3.85;1.83;;;19.10;99.90;;;;;;5055350;28;20041;-56
2024/03/31 02:51:43;;;;;;;4.57;2.28;;;19.20;99.90;;;;;;5037125;28;20040;-56
2024/03/31 02:54:08;;;;;;;6.53;2.03;;;19.10;99.90;;;;;;5037387;28;20079;-57
2024/03/31 02:56:34;;;;;;;5.55;2.10;;;19.20;99.90;;;;;;5054499;28;20270;-58
2024/03/31 02:59:00;;;;;;;3.25;1.63;;;19.20;99.90;;;;;;5055195;28;20099;-57
2024/03/31 03:01:26;;;;;;;5.25;2.25;;;19.20;99.90;;;;;;5036485;28;20554;-58
2024/03/31 03:03:52;;;;;;;6.95;2.08;;;19.10;99.90;;;;;;5054547;28;20611;-57
2024/03/31 03:06:17;;;;;;;4.38;2.17;;;19.10;99.90;;;;;;5054648;28;20454;-56
2024/03/31 03:08:43;;;;;;;6.30;1.77;;;19.10;99.90;;;;;;5055144;28;20025;-60
2024/03/31 03:11:09;;;;;;;6.13;2.60;;;19.20;99.90;;;;;;5054109;28;20078;-56
2024/03/31 03:13:35;;;;;;;7.30;2.08;;;19.20;99.90;;;;;;5054655;28;20028;-57
2024/03/31 03:16:02;;;;;;;8.07;2.45;;;19.20;99.90;;;;;;5035932;28;20419;-57
2024/03/31 03:18:28;;;;;;;;;;;19.10;99.90;;;;;;5055071;28;20059;-56
2024/03/31 03:20:59;;;;;;;5.82;2.38;;;19.10;99.90;;;;;;5054823;28;19936;-57
2024/03/31 03:23:26;;;;;;;6.22;2.42;;;19.20;99.90;;;;;;5051105;28;20029;-56
2024/03/31 03:25:56;;;;;;;5.43;2.30;;;19.10;99.90;;;;;;5045849;28;20029;-57
2024/03/31 03:28:22;;;;;;;8.27;2.25;;;19.10;99.90;;;;;;5054296;28;20068;-57
2024/03/31 03:30:48;;;;;;;8.55;2.15;;;19.10;99.90;;;;;;5054125;28;20032;-56
2024/03/31 03:33:15;;;;;;;9.05;2.20;;;19.10;99.90;;;;;;5049562;28;20017;-56
2024/03/31 03:35:41;;;;;;;9.90;2.42;;;19.10;99.90;;;;;;5035573;28;20367;-56
2024/03/31 03:38:06;;;;;;;6.70;2.45;;;19.10;99.90;;;;;;5042534;28;20105;-56
2024/03/31 03:40:32;;;;;;;9.23;2.22;;;19.10;99.90;;;;;;5025047;28;20024;-56
2024/03/31 03:42:58;;;;;;;7.68;2.45;;;19.00;99.90;;;;;;5044937;28;20517;-55
2024/03/31 03:45:24;;;;;;;6.95;2.17;;;19.00;99.90;;;;;;5044799;28;20083;-54
2024/03/31 03:47:49;;;;;;;9.10;3.33;;;19.00;99.90;;;;;;5046450;28;20033;-57
2024/03/31 03:50:15;;;;;;;7.88;2.65;;;19.10;99.90;;;;;;5036249;28;20086;-56
2024/03/31 03:52:41;;;;;;;10.43;2.25;;;19.00;99.90;;;;;;5051827;28;20017;-56
2024/03/31 03:55:07;;;;;;;5.72;2.45;;;19.00;99.90;;;;;;5054005;28;20025;-56
2024/03/31 03:57:33;;;;;;;6.60;2.67;;;19.00;99.90;;;;;;5054116;28;20581;-56
2024/03/31 03:59:59;;;;;;;9.88;2.83;;;19.00;99.90;;;;;;5054004;28;20036;-55
2024/03/31 04:02:25;;;;;;;7.90;2.65;;;19.00;99.90;;;;;;5054425;28;20057;-55
2024/03/31 04:04:51;;;;;;;9.18;2.95;;;19.00;99.90;;;;;;5053531;28;20127;-55
2024/03/31 04:07:17;;;;;;;12.50;2.90;;;19.00;99.90;;;;;;5053700;28;20031;-54
2024/03/31 04:09:43;;;;;;;8.32;2.58;;;19.00;99.90;;;;;;5053790;28;20105;-56
2024/03/31 04:12:10;;;;;;;8.82;2.92;;;19.00;99.90;;;;;;5053642;28;20060;-55
2024/03/31 04:14:36;;;;;;;7.47;2.58;;;19.00;99.90;;;;;;5053883;28;20063;-55
2024/03/31 04:17:01;;;;;;;10.88;2.63;;;19.00;99.90;;;;;;5053629;28;20024;-55
2024/03/31 04:19:28;;;;;;;6.82;2.38;;;19.00;99.90;;;;;;5053773;28;20028;-55
2024/03/31 04:21:53;;;;;;;10.68;2.20;;;19.00;99.90;;;;;;5053666;28;20037;-54
2024/03/31 04:24:19;;;;;;;9.20;2.83;;;19.00;99.90;;;;;;5053583;28;20108;-55
2024/03/31 04:26:45;;;;;;;11.95;3.58;;;19.00;99.90;;;;;;5053830;28;20359;-54
2024/03/31 04:29:11;;;;;;;9.23;2.40;;;19.00;99.90;;;;;;5053677;28;20078;-55
2024/03/31 04:31:56;;;;;;;7.60;2.05;;;18.90;99.90;;;;;;5053482;28;20017;-55
2024/03/31 04:34:22;;;;;;;10.75;2.50;;;18.90;99.90;;;;;;5053362;28;20392;-54
2024/03/31 04:36:51;;;;;;;9.73;2.83;;;18.90;99.90;;;;;;5053345;28;20104;-53
2024/03/31 04:39:17;;;;;;;10.15;2.95;;;18.90;99.90;;;;;;5053645;28;20029;-54
2024/03/31 04:41:43;;;;;;;8.75;3.38;;;18.90;99.90;;;;;;5053388;28;20500;-54
2024/03/31 04:44:09;;;;;;;7.82;2.38;;;18.90;99.90;;;;;;5053253;28;20071;-54
2024/03/31 04:46:34;;;;;;;9.65;2.33;;;18.90;99.90;;;;;;5053238;28;20479;-55
2024/03/31 04:49:00;;;;;;;9.55;3.03;;;18.90;99.90;;;;;;5053222;28;20052;-55
2024/03/31 04:51:26;;;;;;;10.20;2.85;;;18.90;99.90;;;;;;5035518;28;20031;-55
2024/03/31 04:53:52;;;;;;;7.60;2.45;;;18.90;99.90;;;;;;5053201;28;20049;-56
2024/03/31 04:56:17;;;;;;;11.77;3.28;;;18.90;99.90;;;;;;5053163;28;20354;-56
2024/03/31 04:58:43;;;;;;;12.77;2.72;;;18.90;99.90;;;;;;5053168;28;20043;-57
2024/03/31 05:01:09;;;;;;;10.68;2.80;;;18.90;99.90;;;;;;5051096;28;20086;-57
2024/03/31 05:03:35;;;;;;;11.82;3.10;;;18.90;99.90;;;;;;5033836;28;20021;-57
2024/03/31 05:06:01;;;;;;;11.23;3.03;;;18.90;99.90;;;;;;5052688;28;20093;-57
2024/03/31 05:08:26;;;;;;;13.95;3.15;;;18.90;99.90;;;;;;5051507;28;20032;-55
2024/03/31 05:10:56;;;;;;;9.95;2.50;;;18.90;99.90;;;;;;5053144;28;20037;-54
2024/03/31 05:13:27;;;;;;;9.98;3.00;;;18.80;99.90;;;;;;5035071;28;20390;-53
2024/03/31 05:16:06;;;;;;;14.40;2.45;;;18.90;99.90;;;;;;5052901;28;20119;-54
2024/03/31 05:18:32;;;;;;;9.32;2.80;;;18.90;99.90;;;;;;5053111;28;20372;-53
2024/03/31 05:21:00;;;;;;;7.93;3.00;;;18.90;99.90;;;;;;5053001;28;20028;-55
2024/03/31 05:23:26;;;;;;;13.52;2.78;;;18.90;99.90;;;;;;5052823;28;20028;-53
2024/03/31 05:25:52;;;;;;;10.43;3.50;;;18.90;99.90;;;;;;5052686;28;20099;-54
2024/03/31 05:28:18;;;;;;;10.20;2.35;;;18.90;99.90;;;;;;5052698;28;20017;-54
2024/03/31 05:30:47;;;;;;;9.55;2.88;;;18.90;99.90;;;;;;5052707;28;20025;-55
2024/03/31 05:33:13;;;;;;;9.52;3.22;;;18.80;99.90;;;;;;5053058;28;20022;-54
2024/03/31 05:35:44;;;;;;;14.93;3.72;;;18.80;99.90;;;;;;5052712;28;20064;-54
2024/03/31 05:38:15;;;;;;;12.88;3.63;;;18.80;99.90;;;;;;5052620;28;20021;-54
2024/03/31 05:40:43;;;;;;;14.18;3.10;;;18.80;99.90;;;;;;5052799;28;20052;-54
2024/03/31 05:43:09;;;;;;;12.20;3.50;;;18.80;99.90;;;;;;5052573;28;20036;-54
2024/03/31 05:45:37;;;;;;;15.13;3.75;;;18.80;99.90;;;;;;5052493;28;20041;-54
2024/03/31 05:48:09;;;;;;;;;;;18.80;99.90;;;;;;5053037;28;20485;-54
2024/03/31 05:50:35;;;;;;;8.93;3.30;;;18.80;99.90;;;;;;5034795;28;19959;-54
2024/03/31 05:53:02;;;;;;;9.05;2.50;;;18.80;99.90;;;;;;5052637;28;20033;-54
2024/03/31 05:55:31;;;;;;;8.02;2.58;;;18.80;99.90;;;;;;5052359;28;20377;-54
2024/03/31 05:57:58;;;;;;;10.15;2.58;;;18.80;99.90;;;;;;5052469;28;20101;-54
2024/03/31 06:00:25;;;;;;;12.15;3.17;;;18.80;99.90;;;;;;5052437;28;20025;-54
2024/03/31 06:02:51;;;;;;;13.38;3.83;;;18.80;99.90;;;;;;5052326;28;20041;-54
2024/03/31 06:05:17;;;;;;;11.93;3.67;;;18.80;99.90;;;;;;5034779;28;20029;-54
2024/03/31 06:07:50;;;;;;;14.65;3.08;;;18.80;99.90;;;;;;5034615;28;20025;-54
2024/03/31 06:10:16;;;;;;;10.95;3.25;;;18.80;99.90;;;;;;5052531;28;20020;-54
2024/03/31 06:12:42;;;;;;;11.43;3.13;;;18.80;99.90;;;;;;5034516;28;20025;-54
2024/03/31 06:15:08;;;;;;;10.27;3.03;;;18.80;99.90;;;;;;5052383;28;20029;-55
2024/03/31 06:17:35;;;;;;;10.30;2.92;;;18.80;99.90;;;;;;5055558;28;20469;-54
2024/03/31 06:20:01;;;;;;;9.52;2.70;;;18.80;99.90;;;;;;5056069;28;20033;-53
2024/03/31 06:22:26;;;;;;;8.48;2.75;;;18.80;99.90;;;;;;5055806;28;20366;-54
2024/03/31 06:24:52;;;;;;;12.93;3.42;;;18.80;99.90;;;;;;5055692;28;20075;-54
2024/03/31 06:27:18;;;;;;;9.50;2.72;;;18.80;99.90;;;;;;5055862;28;20021;-53
2024/03/31 06:29:50;;;;;;;16.52;3.22;;;18.80;99.90;;;;;;5037750;28;20029;-53
2024/03/31 06:32:16;;;;;;;7.70;2.53;;;18.80;99.90;;;;;;5055666;28;20017;-54
2024/03/31 06:34:44;;;;;;;10.55;3.05;;;18.80;99.90;;;;;;5055568;28;20112;-54
2024/03/31 06:37:09;;;;;;;8.23;2.97;;;18.80;99.90;;;;;;5055670;28;20071;-55
2024/03/31 06:39:35;;;;;;;9.55;2.78;;;18.80;99.90;;;;;;5055634;28;20037;-54
2024/03/31 06:42:01;;;;;;;7.53;2.22;;;18.80;99.90;;;;;;5055637;28;20028;-53
2024/03/31 06:44:27;;;;;;;9.63;2.75;;;18.80;99.90;;;;;;5037721;28;20021;-54
2024/03/31 06:46:53;;;;;;;5.68;3.20;;;18.80;99.90;;;;;;5055507;28;20479;-55
2024/03/31 06:49:18;;;;;;;11.70;3.00;;;18.80;99.90;;;;;;5037833;28;20044;-55
2024/03/31 06:51:44;;;;;;;15.13;2.40;;;18.80;99.90;;;;;;5055316;28;20032;-54
2024/03/31 06:54:10;;;;;;;11.18;2.13;;;18.80;99.90;;;;;;5037512;28;20028;-55
2024/03/31 06:56:36;;;;;;;7.75;2.38;;;18.80;99.90;;;;;;5055339;28;20017;-54
2024/03/31 06:59:02;;;;;;;9.88;2.15;;;18.80;99.90;;;;;;5055110;28;20021;-55
2024/03/31 07:01:28;;;;;;;8.32;2.40;;;18.80;99.90;;;;;;5055153;28;20044;-55
2024/03/31 07:03:54;;;;;;;6.80;2.03;;;18.80;99.90;;;;;;5055076;28;20021;-54
2024/03/31 07:06:20;;;;;;;7.28;2.53;;;18.80;99.90;;;;;;5055166;28;20041;-55
2024/03/31 07:08:46;;;;;;;7.75;2.50;;;18.80;99.90;;;;;;5055078;28;20469;-55
2024/03/31 07:11:12;;;;;;;6.22;2.20;;;18.80;99.90;;;;;;5055326;28;20039;-54
2024/03/31 07:13:38;;;;;;;8.45;2.10;;;18.80;99.90;;;;;;5055000;28;20021;-53
2024/03/31 07:16:04;;;;;;;6.57;2.60;;;18.80;99.90;;;;;;5055030;28;20032;-53
2024/03/31 07:18:29;;;;;;;11.43;2.50;;;18.80;99.90;;;;;;5054873;28;20041;-53
2024/03/31 07:20:55;;;;;;;6.15;2.05;;;18.80;99.90;;;;;;5054847;28;20062;-53
2024/03/31 07:23:21;;;;;;;7.40;2.22;;;18.80;99.90;;;;;;5054886;28;20546;-53
2024/03/31 07:25:47;;;;;;;7.53;2.25;;;18.80;99.90;;;;;;5054701;28;20405;-53
2024/03/31 07:28:12;;;;;;;5.10;1.90;;;18.80;99.90;;;;;;5054682;28;20099;-53
2024/03/31 07:30:38;;;;;;;7.32;2.03;;;18.80;99.90;;;;;;5054825;28;20034;-53
2024/03/31 07:33:04;;;;;;;6.35;2.40;;;18.80;99.90;;;;;;5054592;28;20036;-53
2024/03/31 07:35:30;;;;;;;3.47;1.50;;;18.80;99.90;;;;;;5054503;28;20063;-56
2024/03/31 07:37:55;;;;;;;9.43;2.63;;;18.80;99.90;;;;;;5054425;28;20389;-57
2024/03/31 07:40:21;;;;;;;4.70;1.58;;;18.80;99.90;;;;;;5036610;28;20032;-56
2024/03/31 07:42:47;;;;;;;6.80;2.63;;;18.80;99.90;;;;;;5054664;28;20024;-57
2024/03/31 07:45:13;;;;;;;5.78;2.20;;;18.90;99.90;;;;;;5054283;28;20543;-57
2024/03/31 07:47:39;;;;;;;5.18;1.52;;;18.80;99.90;;;;;;5054330;28;20472;-56
2024/03/31 07:50:05;;;;;;;8.13;1.73;;;18.80;99.90;;;;;;5054185;28;20079;-57
2024/03/31 07:52:31;;;;;;;4.65;1.38;;;18.80;99.90;;;;;;5054200;28;20033;-56
2024/03/31 07:54:56;;;;;;;6.45;1.73;;;18.90;99.90;;;;;;5054094;28;20131;-57
2024/03/31 07:57:22;;;;;;;4.15;2.45;;;18.80;99.90;;;;;;5054091;28;20021;-56
2024/03/31 07:59:48;;;;;;;8.90;1.58;;;18.90;99.90;;;;;;5054250;28;20024;-56
2024/03/31 08:02:14;;;;;;;6.05;1.55;;;18.90;99.90;;;;;;5053684;28;20072;-56
2024/03/31 08:04:40;;;;;;;6.93;1.98;;;18.80;99.90;;;;;;5053900;28;20036;-56
2024/03/31 08:07:06;;;;;;;4.50;1.40;;;18.80;99.90;;;;;;5054082;28;20032;-57
2024/03/31 08:09:32;;;;;;;4.85;1.42;;;18.90;99.90;;;;;;5053792;28;20025;-57
2024/03/31 08:11:58;;;;;;;3.30;1.52;;;18.80;99.90;;;;;;5053900;28;20106;-58
2024/03/31 08:14:24;;;;;;;5.40;1.60;;;18.90;99.90;;;;;;5054036;28;20329;-57
2024/03/31 08:16:50;;;;;;;5.20;1.60;;;18.90;99.90;;;;;;5053946;28;20021;-58
2024/03/31 08:19:15;;;;;;;4.30;1.40;;;18.90;99.90;;;;;;5054314;28;20457;-58
2024/03/31 08:21:41;;;;;;;7.85;1.95;;;18.90;99.90;;;;;;5053545;28;20027;-57
2024/03/31 08:24:07;;;;;;;5.05;1.48;;;18.90;99.90;;;;;;5053568;28;20074;-57
2024/03/31 08:26:36;;;;;;;5.60;2.05;;;18.90;99.90;;;;;;5053528;28;20496;-58
2024/03/31 08:29:02;;;;;;;3.38;1.30;;;18.90;99.90;;;;;;5053718;28;20025;-57
2024/03/31 08:31:27;;;;;;;3.75;1.63;;;18.90;99.90;;;;;;5053602;28;20069;-55
2024/03/31 08:33:53;;;;;;;4.32;1.50;;;18.90;99.90;;;;;;5053394;28;20021;-55
2024/03/31 08:36:19;;;;;;;4.80;1.75;;;18.90;99.90;;;;;;5053588;28;20135;-55
2024/03/31 08:38:45;;;;;;;4.50;1.95;;;18.90;99.90;;;;;;5052798;28;20028;-55
2024/03/31 08:41:15;;;;;;;5.32;1.92;;;18.80;99.90;;;;;;5053360;28;20029;-55
2024/03/31 08:43:45;;;;;;;5.13;1.85;;;18.90;99.90;;;;;;5053408;28;20437;-56
2024/03/31 08:46:11;;;;;;;4.20;1.42;;;18.90;99.90;;;;;;5053297;28;20040;-56
2024/03/31 08:48:38;;;;;;;3.75;1.60;;;18.90;99.90;;;;;;5053310;28;20067;-56
2024/03/31 08:51:05;;;;;;;2.80;1.25;;;18.90;99.90;;;;;;5053330;28;20025;-54
2024/03/31 08:53:32;;;;;;;2.47;1.52;;;18.90;99.90;;;;;;5053175;28;20024;-55
2024/03/31 08:55:58;;;;;;;5.20;1.45;;;18.90;99.90;;;;;;5053336;28;20032;-54
2024/03/31 08:58:24;;;;;;;5.25;1.50;;;18.90;99.90;;;;;;5053172;28;20122;-55
2024/03/31 09:00:51;;;;;;;4.13;1.10;;;18.90;99.90;;;;;;5052870;28;20021;-54
2024/03/31 09:03:17;;;;;;;4.43;1.35;;;18.90;99.90;;;;;;5052950;28;20025;-55
2024/03/31 09:05:44;;;;;;;10.50;2.15;;;18.90;99.90;;;;;;5052853;28;20032;-55
2024/03/31 09:08:10;;;;;;;4.88;1.85;;;18.90;99.90;;;;;;5052920;28;20543;-55
2024/03/31 09:10:37;;;;;;;2.28;1.35;;;18.90;99.90;;;;;;5053224;28;20025;-55
2024/03/31 09:13:06;;;;;;;3.92;1.67;;;18.90;99.90;;;;;;5052947;28;20021;-55
2024/03/31 09:15:36;;;;;;;3.80;1.73;;;18.90;99.90;;;;;;5052784;28;20021;-56
2024/03/31 09:18:02;;;;;;;3.15;2.20;;;18.90;99.90;;;;;;5035004;28;20021;-55
2024/03/31 09:20:29;;;;;;;4.93;2.10;;;18.90;99.90;;;;;;5052915;28;20051;-56
2024/03/31 09:22:59;;;;;;;3.67;1.60;;;18.90;99.90;;;;;;5052980;28;20021;-55
2024/03/31 09:25:25;;;;;;;4.13;1.55;;;18.90;99.90;;;;;;5052988;28;20069;-55
2024/03/31 09:28:00;;;;;;;3.50;1.73;;;18.90;99.90;;;;;;5052883;28;20481;-55
2024/03/31 09:30:31;;;;;;;3.53;1.45;;;18.90;99.90;;;;;;5052845;28;20029;-54
2024/03/31 09:32:58;;;;;;;4.10;1.55;;;18.90;99.90;;;;;;5052905;28;20021;-54
2024/03/31 09:35:24;;;;;;;3.28;1.67;;;18.90;99.90;;;;;;5052976;28;20071;-55
2024/03/31 09:37:51;;;;;;;4.43;1.67;;;18.90;99.90;;;;;;5052815;28;20055;-55
2024/03/31 09:40:17;;;;;;;3.97;1.70;;;18.80;99.90;;;;;;5052816;28;20032;-56
2024/03/31 09:42:45;;;;;;;4.38;2.00;;;18.90;99.90;;;;;;5052531;28;20689;-55
2024/03/31 09:45:11;;;;;;;3.38;1.60;;;18.90;99.90;;;;;;5052692;28;20466;-56
2024/03/31 09:47:44;;;;;;;2.80;1.98;;;18.80;99.90;;;;;;5052729;28;20025;-56
2024/03/31 09:50:20;;;;;;;3.05;1.60;;;18.90;99.90;;;;;;5034685;28;20036;-57
2024/03/31 09:52:51;;;;;;;3.03;1.73;;;18.90;99.90;;;;;;5056107;28;20028;-57
2024/03/31 09:55:23;;;;;;;5.32;1.70;;;18.90;99.90;;;;;;5056313;28;20050;-56
2024/03/31 09:57:55;;;;;;;4.80;1.63;;;18.90;99.90;;;;;;5056345;28;20511;-56
2024/03/31 10:00:22;;;;;;;4.93;2.00;;;18.90;99.90;;;;;;5056491;28;20029;-57
2024/03/31 10:02:54;;;;;;;5.82;1.92;;;18.90;99.90;;;;;;5056183;28;20053;-56
2024/03/31 10:05:38;;;;;;;4.05;2.20;;;18.90;99.90;;;;;;5056157;28;20082;-57
2024/03/31 10:08:05;;;;;;;4.13;2.35;;;18.90;99.90;;;;;;5056150;28;20423;-57
2024/03/31 10:10:32;;;;;;;5.28;2.25;;;18.90;99.90;;;;;;5056315;28;20029;-56
2024/03/31 10:12:59;;;;;;;3.97;2.40;;;18.90;99.90;;;;;;5038260;28;20040;-55
2024/03/31 10:15:27;;;;;;;6.80;2.20;;;18.90;99.90;;;;;;5056206;28;20025;-55
2024/03/31 10:17:56;;;;;;;3.83;2.17;;;18.90;99.90;;;;;;5056246;28;20473;-55
2024/03/31 10:20:23;;;;;;;5.85;2.50;;;18.90;99.90;;;;;;5056023;28;20028;-54
2024/03/31 10:22:50;;;;;;;4.50;2.33;;;18.90;99.90;;;;;;5055940;28;20017;-55
2024/03/31 10:25:16;;;;;;;4.93;2.65;;;18.90;99.90;;;;;;5056185;28;20469;-56
2024/03/31 10:27:43;;;;;;;4.35;2.85;;;18.90;99.90;;;;;;5037908;28;20079;-55
2024/03/31 10:30:10;;;;;;;4.05;2.42;;;18.90;99.90;;;;;;5055799;28;20095;-56
2024/03/31 10:32:37;;;;;;;5.57;2.80;;;18.90;99.90;;;;;;5055601;28;20025;-56
2024/03/31 10:35:06;;;;;;;4.60;2.67;;;18.90;99.90;;;;;;5055591;28;20021;-56
2024/03/31 10:37:34;;;;;;;5.00;2.97;;;18.90;99.90;;;;;;5055572;28;20025;-56
2024/03/31 10:40:02;;;;;;;4.30;2.85;;;18.90;99.90;;;;;;5055580;28;20105;-56
2024/03/31 10:42:28;;;;;;;5.18;3.00;;;18.90;99.90;;;;;;5055520;28;20017;-56
2024/03/31 10:44:55;;;;;;;5.78;3.15;;;18.90;99.90;;;;;;5055413;28;20060;-57
2024/03/31 10:47:21;;;;;;;5.53;3.17;;;18.90;99.90;;;;;;5055241;28;20040;-56
2024/03/31 10:49:59;;;;;;;7.22;2.88;;;18.90;99.90;;;;;;5055166;28;20017;-55
2024/03/31 10:52:27;;;;;;;4.25;2.80;;;18.90;99.90;;;;;;5055299;28;20028;-57
2024/03/31 10:54:55;;;;;;;5.47;3.58;;;18.90;99.90;;;;;;5055144;28;20025;-56
2024/03/31 10:57:22;;;;;;;4.47;2.78;;;18.90;99.90;;;;;;5055109;28;20017;-55
2024/03/31 10:59:48;;;;;;;4.77;3.13;;;18.90;99.90;;;;;;5055188;28;20025;-56
2024/03/31 11:02:16;;;;;;;4.90;3.20;;;19.00;99.90;;;;;;5054579;28;20064;-56
2024/03/31 11:04:42;;;;;;;4.40;2.55;;;19.00;99.90;;;;;;5055097;28;20021;-55
2024/03/31 11:07:12;;;;;;;5.20;3.28;;;19.00;99.90;;;;;;5054901;28;20033;-55
2024/03/31 11:09:40;;;;;;;5.60;3.10;;;19.00;99.90;;;;;;5037002;28;20021;-56
2024/03/31 11:12:12;;;;;;;5.32;2.60;;;19.00;99.90;;;;;;5054906;28;20028;-55
2024/03/31 11:14:38;;;;;;;3.25;2.40;;;19.00;99.90;;;;;;5054836;28;20040;-57
2024/03/31 11:17:04;;;;;;;3.25;2.30;;;19.00;99.90;;;;;;5054991;28;20420;-57
2024/03/31 11:19:31;;;;;;;4.85;3.05;;;19.00;99.90;;;;;;5054880;28;20071;-56
2024/03/31 11:22:05;;;;;;;4.40;3.15;;;19.00;99.90;;;;;;5054749;28;20103;-56
2024/03/31 11:24:32;;;;;;;5.53;3.35;;;19.00;99.90;;;;;;5054618;28;20080;-54
2024/03/31 11:26:59;;;;;;;5.25;2.95;;;19.00;99.90;;;;;;5036860;28;20029;-54
2024/03/31 11:29:25;;;;;;;3.85;2.75;;;19.00;99.90;;;;;;5036741;28;20504;-55
2024/03/31 11:31:52;;;;;;;5.45;3.00;;;19.00;99.90;;;;;;5054576;28;20025;-54
2024/03/31 11:34:18;;;;;;;4.53;2.83;;;19.00;99.90;;;;;;5054764;28;20025;-54
2024/03/31 11:36:45;;;;;;;4.40;2.72;;;19.00;99.90;;;;;;5036538;28;20087;-55
2024/03/31 11:39:14;;;;;;;4.57;3.08;;;19.00;99.90;;;;;;5054306;28;20028;-54
2024/03/31 11:41:40;;;;;;;4.00;2.78;;;19.00;99.90;;;;;;5054530;28;20025;-54
2024/03/31 11:44:06;;;;;;;5.47;3.47;;;19.00;99.90;;;;;;5036625;28;20021;-54
2024/03/31 11:46:33;;;;;;;4.20;3.13;;;19.00;99.90;;;;;;5054104;28;20159;-56
2024/03/31 11:48:59;;;;;;;5.50;3.47;;;19.00;99.90;;;;;;5036390;28;20024;-55
2024/03/31 11:51:30;;;;;;;4.20;2.95;;;19.00;99.90;;;;;;5054180;28;20269;-54
2024/03/31 11:53:56;;;;;;;8.38;2.75;;;19.00;99.90;;;;;;5053994;28;20504;-56
2024/03/31 11:56:22;;;;;;;5.18;2.92;;;19.00;99.90;;;;;;5054002;28;20381;-57
2024/03/31 11:58:48;;;;;;;5.18;2.88;;;19.00;99.90;;;;;;5052708;28;20021;-56
2024/03/31 12:01:22;;;;;;;4.70;3.17;;;19.00;99.90;;;;;;5053787;28;20072;-55
2024/03/31 12:03:57;;;;;;;5.20;3.28;;;19.00;99.90;;;;;;5053871;28;20017;-55
2024/03/31 12:06:24;;;;;;;7.60;2.95;;;19.00;99.90;;;;;;5053554;28;20429;-55
2024/03/31 12:08:50;;;;;;;5.70;3.33;;;19.00;99.90;;;;;;5053884;28;20028;-54
2024/03/31 12:11:19;;;;;;;5.35;3.33;;;19.00;99.90;;;;;;5035826;28;20029;-54
2024/03/31 12:13:49;;;;;;;4.45;3.03;;;19.00;99.90;;;;;;5052862;28;20029;-55
2024/03/31 12:16:21;;;;;;;4.43;3.10;;;19.00;99.90;;;;;;5053674;28;20500;-56
2024/03/31 12:18:47;;;;;;;4.70;3.38;;;19.00;99.90;;;;;;5053414;28;20025;-56
2024/03/31 12:21:24;;;;;;;4.28;2.38;;;19.00;99.90;;;;;;5053390;28;20060;-57
2024/03/31 12:23:53;;;;;;;4.43;2.95;;;19.00;99.90;;;;;;5053555;28;20017;-56
2024/03/31 12:26:20;;;;;;;4.03;2.60;;;19.00;99.90;;;;;;5053574;28;20461;-57
2024/03/31 12:28:46;;;;;;;4.18;2.78;;;19.00;99.90;;;;;;5035488;28;20025;-57
2024/03/31 12:31:16;;;;;;;5.55;2.72;;;19.00;99.90;;;;;;5053354;28;20048;-57
2024/03/31 12:33:47;;;;;;;4.90;2.72;;;19.00;99.90;;;;;;5053299;28;20325;-56
2024/03/31 12:36:13;;;;;;;4.50;2.53;;;19.00;99.90;;;;;;5053247;28;20017;-56
2024/03/31 12:38:40;;;;;;;4.95;3.20;;;19.00;99.90;;;;;;5053250;28;20025;-55
2024/03/31 12:41:07;;;;;;;6.05;3.22;;;19.00;99.90;;;;;;5053282;28;20029;-55
2024/03/31 12:43:33;;;;;;;4.18;2.83;;;19.00;99.90;;;;;;5053341;28;20418;-54